Time;durP1;ratioP1;P1;durP2;ratioP2;P2;SDS_P1;SDS_P2;PMS_P1;PMS_P2;Temp;Humidity;BMP_temperature;BMP_pressure;BME280_temperature;BME280_humidity;BME280_pressure;Samples;Min_cycle;Max_cycle;Signal;HPM_P1;HPM_P2
2021/05/27 00:02:02;;;;;;;;;4.00;4.00;;;;;13.27;64.63;101385.50;5082765;27;45211;-57
2021/05/27 00:04:28;;;;;;;;;6.00;5.00;;;;;13.27;65.02;101380.22;5098441;27;48073;-55
2021/05/27 00:06:53;;;;;;;;;5.00;4.00;;;;;13.26;64.71;101389.91;5082388;27;45345;-54
2021/05/27 00:09:19;;;;;;;;;7.75;5.50;;;;;13.29;64.65;101391.63;5082818;27;45766;-55
2021/05/27 00:11:44;;;;;;;;;7.25;7.00;;;;;13.26;64.75;101392.56;5097981;27;45242;-56
2021/05/27 00:14:10;;;;;;;;;7.50;6.75;;;;;13.26;64.78;101384.63;5082447;27;45258;-55
2021/05/27 00:16:35;;;;;;;;;7.25;5.50;;;;;13.29;64.75;101394.28;5082440;27;45694;-55
2021/05/27 00:19:01;;;;;;;;;5.50;4.50;;;;;13.27;64.66;101391.66;5082762;28;45317;-56
2021/05/27 00:21:26;;;;;;;;;6.00;6.00;;;;;13.24;64.83;101399.59;5080899;27;45333;-56
2021/05/27 00:23:51;;;;;;;;;5.25;5.25;;;;;13.20;64.81;101395.28;5082384;27;45698;-55
2021/05/27 00:26:17;;;;;;;;;9.00;6.75;;;;;13.21;64.99;101396.16;5082198;27;45336;-54
2021/05/27 00:28:43;;;;;;;;;9.00;7.50;;;;;13.14;64.89;101387.44;5082257;27;45314;-56
2021/05/27 00:31:08;;;;;;;;;5.25;5.25;;;;;13.18;65.34;101397.06;5082135;27;45510;-56
2021/05/27 00:33:34;;;;;;;;;6.00;6.00;;;;;13.17;64.91;101396.19;5081929;27;46113;-55
2021/05/27 00:36:00;;;;;;;;;7.25;6.00;;;;;13.14;64.90;101393.63;5081907;27;45346;-55
2021/05/27 00:38:25;;;;;;;;;6.00;6.00;;;;;13.18;65.00;101397.06;5082335;27;45354;-56
2021/05/27 00:40:51;;;;;;;;;5.25;5.25;;;;;13.16;65.07;101406.78;5097711;27;45594;-55
2021/05/27 00:43:16;;;;;;;;;7.00;7.00;;;;;13.13;65.08;101398.88;5081905;27;47120;-53
2021/05/27 00:45:41;;;;;;;;;11.00;8.00;;;;;13.13;65.16;101399.78;5081913;27;45184;-56
2021/05/27 00:48:07;;;;;;;;;6.00;6.00;;;;;13.10;64.97;101405.09;5082161;27;45274;-54
2021/05/27 00:50:32;;;;;;;;;7.50;7.50;;;;;13.04;65.02;101389.34;5081591;27;45230;-56
2021/05/27 00:52:58;;;;;;;;;4.00;4.00;;;;;13.06;65.24;101400.75;5081787;27;46017;-54
2021/05/27 00:55:25;;;;;;;;;7.25;6.75;;;;;13.03;65.32;101407.84;5081719;27;45245;-57
2021/05/27 00:57:52;;;;;;;;;9.00;8.00;;;;;13.01;65.83;101408.72;5081921;27;45310;-55
2021/05/27 01:00:21;;;;;;;;;7.25;5.75;;;;;12.99;65.43;101412.28;5081596;27;45337;-55
2021/05/27 01:02:47;;;;;;;;;6.25;6.25;;;;;12.97;65.40;101412.31;5081665;27;46256;-55
2021/05/27 01:05:15;;;;;;;;;8.25;7.75;;;;;12.95;65.41;101413.22;5081302;27;45401;-55
2021/05/27 01:07:41;;;;;;;;;7.00;6.50;;;;;12.91;65.49;101416.81;5081755;27;45341;-55
2021/05/27 01:10:09;;;;;;;;;6.00;6.00;;;;;12.89;65.70;101410.66;5081485;27;45316;-55
2021/05/27 01:12:35;;;;;;;;;6.25;6.25;;;;;12.89;65.67;101418.56;5097383;27;46257;-56
2021/05/27 01:17:44;;;;;;;;;6.50;6.50;;;;;12.89;65.60;101427.34;5081634;28;45294;-58
2021/05/27 01:20:12;;;;;;;;;6.00;6.00;;;;;12.90;65.56;101423.81;5081148;27;45497;-57
2021/05/27 01:22:39;;;;;;;;;7.25;6.00;;;;;12.88;65.39;101427.38;5080010;28;46087;-57
2021/05/27 01:25:06;;;;;;;;;4.25;4.00;;;;;12.85;65.58;101417.75;5081423;27;45149;-55
2021/05/27 01:27:32;;;;;;;;;4.75;4.75;;;;;12.84;65.73;101423.91;5081059;27;45319;-53
2021/05/27 01:29:57;;;;;;;;;5.00;5.00;;;;;12.83;65.47;101425.69;5081471;27;45300;-54
2021/05/27 01:32:22;;;;;;;;;5.50;5.25;;;;;12.79;65.39;101420.44;5080819;27;45551;-54
2021/05/27 01:34:48;;;;;;;;;8.00;7.00;;;;;12.80;65.47;101427.47;5096960;27;45335;-54
2021/05/27 01:37:13;;;;;;;;;5.75;5.75;;;;;12.76;65.57;101417.88;5081247;27;45374;-55
2021/05/27 01:39:44;;;;;;;;;8.25;7.25;;;;;12.71;65.64;101417.06;5081346;27;45391;-55
2021/05/27 01:42:10;;;;;;;;;5.25;5.00;;;;;12.72;65.53;101424.09;5080877;27;45319;-54
2021/05/27 01:44:35;;;;;;;;;5.00;5.00;;;;;12.67;65.90;101422.34;5081084;27;45231;-55
2021/05/27 01:47:00;;;;;;;;;5.50;5.50;;;;;12.61;65.78;101421.56;5081312;27;45509;-56
2021/05/27 01:49:26;;;;;;;;;3.75;3.75;;;;;12.57;65.95;101428.63;5081185;27;45467;-55
2021/05/27 01:51:51;;;;;;;;;5.00;5.00;;;;;12.55;65.98;101427.75;5080576;27;45430;-56
2021/05/27 01:54:17;;;;;;;;;7.50;4.75;;;;;12.55;66.19;101437.44;5079634;28;45312;-55
2021/05/27 01:56:43;;;;;;;;;4.00;4.00;;;;;12.53;65.94;101440.09;5096489;27;45451;-55
2021/05/27 01:59:09;;;;;;;;;10.75;7.50;;;;;12.50;66.15;101437.50;5081059;27;45303;-56
2021/05/27 02:01:34;;;;;;;;;6.75;6.50;;;;;12.47;66.03;101438.41;5080567;27;45623;-56
2021/05/27 02:04:00;;;;;;;;;5.50;4.00;;;;;12.44;66.10;101433.19;5096816;27;45717;-56
2021/05/27 02:06:26;;;;;;;;;6.75;5.00;;;;;12.40;65.91;101431.47;5080572;27;45229;-56
2021/05/27 02:09:07;;;;;;;;;8.00;6.50;;;;;12.39;66.40;101428.84;5081043;27;45180;-54
2021/05/27 02:11:33;;;;;;;;;6.50;5.50;;;;;12.32;66.38;101425.41;5080328;27;45967;-55
2021/05/27 02:13:58;;;;;;;;;7.75;7.75;;;;;12.32;66.46;101431.53;5062483;28;45289;-56
2021/05/27 02:16:24;;;;;;;;;6.00;6.00;;;;;12.27;66.34;101422.81;5096501;27;45579;-56
2021/05/27 02:18:49;;;;;;;;;6.00;6.00;;;;;12.29;66.40;101430.69;5080626;27;45286;-56
2021/05/27 02:21:14;;;;;;;;;6.00;6.00;;;;;12.28;66.46;101435.09;5080197;27;46162;-56
2021/05/27 02:23:40;;;;;;;;;8.00;6.00;;;;;12.26;66.63;101439.50;5080534;27;45338;-56
2021/05/27 02:26:05;;;;;;;;;4.75;4.25;;;;;12.25;66.37;101434.25;5080718;27;45366;-55
2021/05/27 02:28:31;;;;;;;;;5.75;5.75;;;;;12.23;66.81;101434.28;5080242;27;45218;-56
2021/05/27 02:30:56;;;;;;;;;5.75;5.75;;;;;12.20;66.76;101439.59;5080257;28;46007;-56
2021/05/27 02:33:21;;;;;;;;;6.75;5.75;;;;;12.16;66.67;101436.09;5080368;27;45329;-56
2021/05/27 02:35:47;;;;;;;;;8.00;7.00;;;;;12.12;66.65;101437.00;5080241;27;45223;-56
2021/05/27 02:38:13;;;;;;;;;8.50;8.00;;;;;12.13;66.79;101436.13;5079110;28;45285;-56
2021/05/27 02:40:38;;;;;;;;;6.00;6.00;;;;;12.13;66.73;101445.78;5080003;27;46539;-57
2021/05/27 02:43:03;;;;;;;;;6.00;4.25;;;;;12.10;66.64;101445.81;5079048;28;45312;-56
2021/05/27 02:45:29;;;;;;;;;7.50;6.25;;;;;12.08;66.58;101442.34;5079726;27;45287;-56
2021/05/27 02:47:54;;;;;;;;;5.25;5.25;;;;;12.02;66.71;101438.88;5062106;28;45250;-56
2021/05/27 02:50:20;;;;;;;;;8.50;7.00;;;;;12.01;66.70;101442.38;5079766;27;46276;-55
2021/05/27 02:52:45;;;;;;;;;9.25;6.50;;;;;11.98;66.75;101438.91;5080010;27;45331;-56
2021/05/27 02:55:11;;;;;;;;;9.00;7.00;;;;;11.98;66.74;101444.16;5080006;27;45368;-56
2021/05/27 02:57:36;;;;;;;;;6.75;6.75;;;;;11.94;66.70;101443.28;5080018;27;45425;-56
2021/05/27 03:00:06;;;;;;;;;8.75;7.75;;;;;11.93;66.70;101449.44;5079912;27;45256;-56
2021/05/27 03:02:31;;;;;;;;;10.00;7.25;;;;;11.89;66.96;101442.44;5079974;27;45371;-56
2021/05/27 03:04:56;;;;;;;;;7.00;7.00;;;;;11.85;66.84;101438.09;5079703;27;45495;-56
2021/05/27 03:07:22;;;;;;;;;10.75;8.00;;;;;11.85;67.00;101441.59;5080165;27;45220;-56
2021/05/27 03:09:47;;;;;;;;;8.00;8.00;;;;;11.85;66.97;101443.38;5079743;27;46291;-58
2021/05/27 03:12:12;;;;;;;;;7.00;6.50;;;;;11.82;67.25;101441.63;5095403;27;45309;-55
2021/05/27 03:14:38;;;;;;;;;6.50;4.75;;;;;11.81;66.91;101441.63;5079833;27;45222;-55
2021/05/27 03:17:03;;;;;;;;;9.75;7.00;;;;;11.79;67.02;101448.69;5080133;27;45215;-55
2021/05/27 03:19:28;;;;;;;;;7.50;7.25;;;;;11.77;67.26;101448.66;5095293;27;47074;-56
2021/05/27 03:21:54;;;;;;;;;8.50;6.75;;;;;11.74;67.33;101446.09;5079587;27;45242;-55
2021/05/27 03:24:19;;;;;;;;;8.00;6.75;;;;;11.73;67.63;101439.06;5095557;27;45271;-56
2021/05/27 03:26:44;;;;;;;;;9.25;6.75;;;;;11.69;67.55;101438.22;5079739;27;45223;-55
2021/05/27 03:29:10;;;;;;;;;8.00;7.50;;;;;11.67;67.82;101442.63;5079457;28;46127;-56
2021/05/27 03:31:36;;;;;;;;;8.00;6.00;;;;;11.66;67.50;101448.78;5079469;27;45388;-56
2021/05/27 03:34:01;;;;;;;;;10.75;8.75;;;;;11.65;67.72;101443.53;5079851;27;45273;-55
2021/05/27 03:36:27;;;;;;;;;8.25;8.25;;;;;11.64;67.68;101445.28;5079566;28;45239;-56
2021/05/27 03:38:52;;;;;;;;;8.25;7.50;;;;;11.64;67.55;101449.69;5079571;27;45471;-56
2021/05/27 03:41:17;;;;;;;;;14.00;10.75;;;;;11.64;67.43;101444.41;5079598;27;45486;-55
2021/05/27 03:43:43;;;;;;;;;9.25;9.25;;;;;11.62;67.62;101446.16;5079485;27;45236;-56
2021/05/27 03:46:08;;;;;;;;;10.00;10.00;;;;;11.57;67.46;101440.06;5079599;27;45251;-56
2021/05/27 03:48:34;;;;;;;;;9.00;9.00;;;;;11.58;67.73;101437.41;5095177;27;48323;-56
2021/05/27 03:50:59;;;;;;;;;10.25;10.25;;;;;11.57;67.54;101432.16;5079338;27;45398;-56
2021/05/27 03:53:25;;;;;;;;;10.75;7.50;;;;;11.54;67.51;101430.44;5079342;27;45344;-55
2021/05/27 03:55:50;;;;;;;;;13.00;11.00;;;;;11.54;67.72;101433.94;5079529;27;45350;-56
2021/05/27 04:01:00;;;;;;;;;9.25;9.25;;;;;11.50;67.81;101439.25;5082964;28;46128;-57
2021/05/27 04:03:25;;;;;;;;;11.50;8.25;;;;;11.49;67.83;101440.97;5082721;27;46021;-57
2021/05/27 04:08:34;;;;;;;;;12.00;7.00;;;;;11.46;67.66;101443.66;5082619;28;45324;-57
2021/05/27 04:11:00;;;;;;;;;12.50;11.00;;;;;11.47;67.98;101452.41;5082541;27;45312;-56
2021/05/27 04:13:26;;;;;;;;;11.00;8.25;;;;;11.45;67.92;101446.31;5082489;27;45244;-57
2021/05/27 04:15:51;;;;;;;;;12.75;12.25;;;;;11.45;67.91;101448.94;5082541;27;45500;-56
2021/05/27 04:18:19;;;;;;;;;11.00;8.75;;;;;11.42;67.78;101448.94;5082289;27;46062;-56
2021/05/27 04:20:47;;;;;;;;;12.00;12.00;;;;;11.40;68.00;101445.47;5082213;27;45264;-57
2021/05/27 04:23:15;;;;;;;;;10.00;8.00;;;;;11.40;67.91;101453.34;5081041;28;45354;-57
2021/05/27 04:25:41;;;;;;;;;11.00;8.50;;;;;11.38;67.86;101461.22;5098175;27;45982;-57
2021/05/27 04:28:07;;;;;;;;;14.25;12.75;;;;;11.37;67.77;101460.38;5088458;27;47104;-55
2021/05/27 04:31:08;;;;;;;;;14.25;8.00;;;;;11.35;68.05;101462.13;5082273;27;45244;-56
2021/05/27 04:33:19;;;;;;;;;11.25;9.25;;;;;11.33;67.65;101461.28;5082165;27;45360;-56
2021/05/27 04:35:45;;;;;;;;;9.50;9.50;;;;;11.37;68.14;101472.63;5081838;27;45479;-59
2021/05/27 04:38:12;;;;;;;;;12.25;8.50;;;;;11.35;67.63;101467.38;5082243;28;45195;-57
2021/05/27 04:40:42;;;;;;;;;14.00;12.25;;;;;11.34;67.93;101470.91;5082011;27;45322;-56
2021/05/27 04:43:08;;;;;;;;;11.00;10.50;;;;;11.38;67.86;101477.91;5082132;27;45215;-58
2021/05/27 04:45:34;;;;;;;;;13.50;12.75;;;;;11.36;67.84;101471.78;5081922;27;45213;-58
2021/05/27 04:47:59;;;;;;;;;14.75;14.50;;;;;11.42;68.21;101484.03;5082119;28;45911;-55
2021/05/27 04:50:25;;;;;;;;;14.50;10.75;;;;;11.45;68.40;101485.78;5080465;28;45234;-56
2021/05/27 04:52:52;;;;;;;;;12.00;12.00;;;;;11.47;68.21;101489.25;5082024;28;45376;-57
2021/05/27 04:55:19;;;;;;;;;13.00;12.00;;;;;11.48;68.35;101494.53;5081835;27;45570;-57
2021/05/27 04:57:45;;;;;;;;;11.00;10.25;;;;;11.53;68.28;101494.50;5080537;28;46346;-57
2021/05/27 05:00:19;;;;;;;;;12.50;12.00;;;;;11.55;68.51;101484.84;5081662;27;45269;-57
2021/05/27 05:02:45;;;;;;;;;12.75;9.75;;;;;11.58;68.34;101484.81;5082158;27;45338;-57
2021/05/27 05:05:13;;;;;;;;;13.25;10.50;;;;;11.60;68.53;101477.78;5081389;27;45375;-58
2021/05/27 05:07:40;;;;;;;;;13.00;13.00;;;;;11.64;68.41;101481.28;5081366;27;45204;-57
2021/05/27 05:10:07;;;;;;;;;11.75;9.75;;;;;11.62;68.14;101477.75;5081475;27;46068;-57
2021/05/27 05:12:51;;;;;;;;;15.50;15.00;;;;;11.70;68.16;101484.72;5081484;27;45401;-57
2021/05/27 05:15:22;;;;;;;;;9.75;9.75;;;;;11.72;68.16;101482.06;5081663;27;45418;-57
2021/05/27 05:17:54;;;;;;;;;15.00;15.00;;;;;11.76;68.14;101494.34;5081308;27;46664;-58
2021/05/27 05:20:24;;;;;;;;;17.75;15.00;;;;;11.78;68.12;101494.34;5081196;27;45310;-56
2021/05/27 05:22:50;;;;;;;;;17.25;14.25;;;;;11.81;68.04;101494.28;5081451;27;45489;-57
2021/05/27 05:25:16;;;;;;;;;17.50;16.00;;;;;11.86;68.01;101498.66;5081433;27;45264;-57
2021/05/27 05:27:42;;;;;;;;;15.50;15.50;;;;;11.89;68.17;101499.53;5080941;28;46414;-56
2021/05/27 05:30:08;;;;;;;;;17.25;15.50;;;;;11.93;68.40;101502.09;5080019;28;45413;-56
2021/05/27 05:32:34;;;;;;;;;14.00;11.25;;;;;11.96;68.33;101495.97;5096958;27;45371;-55
2021/05/27 05:35:00;;;;;;;;;18.00;15.50;;;;;11.99;68.24;101507.38;5076423;28;45592;-56
2021/05/27 05:37:26;;;;;;;;;15.75;14.50;;;;;12.05;68.09;101508.19;5076739;28;46860;-54
2021/05/27 05:39:51;;;;;;;;;29.75;27.75;;;;;12.09;67.98;101502.91;5081048;27;45289;-58
2021/05/27 05:42:17;;;;;;;;;16.00;16.00;;;;;12.12;67.80;101513.41;5080786;27;45177;-63
2021/05/27 05:44:43;;;;;;;;;15.00;15.00;;;;;12.14;68.03;101516.91;5081244;27;45453;-61
2021/05/27 05:47:08;;;;;;;;;16.00;14.25;;;;;12.20;67.78;101521.28;5080866;27;45156;-61
2021/05/27 05:49:33;;;;;;;;;21.75;16.75;;;;;12.24;67.41;101520.34;5080982;27;45247;-61
2021/05/27 05:51:59;;;;;;;;;16.50;15.50;;;;;12.27;67.25;101520.31;5080866;27;45258;-61
2021/05/27 05:54:24;;;;;;;;;34.75;30.00;;;;;12.31;66.81;101529.97;5081130;27;45417;-61
2021/05/27 05:56:50;;;;;;;;;19.50;18.00;;;;;12.33;67.05;101525.53;5080426;27;45448;-61
2021/05/27 05:59:15;;;;;;;;;22.00;17.00;;;;;12.37;66.69;101522.88;5081158;27;45190;-62
2021/05/27 06:01:40;;;;;;;;;17.00;17.00;;;;;12.44;66.72;101532.44;5080875;27;45214;-61
2021/05/27 06:04:06;;;;;;;;;22.50;19.50;;;;;12.48;66.90;101534.19;5081080;27;45341;-61
2021/05/27 06:06:31;;;;;;;;;25.25;20.00;;;;;12.49;66.87;101536.81;5080392;27;46098;-60
2021/05/27 06:08:57;;;;;;;;;18.75;16.75;;;;;12.49;66.09;101541.19;5080727;27;45257;-61
2021/05/27 06:11:23;;;;;;;;;20.25;19.25;;;;;12.52;65.79;101533.25;5080713;27;45276;-60
2021/05/27 06:13:48;;;;;;;;;16.75;16.75;;;;;12.55;65.41;101537.63;5080498;27;45432;-62
2021/05/27 06:16:14;;;;;;;;;21.25;20.25;;;;;12.56;65.53;101529.69;5096152;27;47099;-62
2021/05/27 06:18:39;;;;;;;;;20.25;17.00;;;;;12.61;65.48;101533.16;5096087;27;46011;-62
2021/05/27 06:21:05;;;;;;;;;17.00;15.75;;;;;12.69;65.37;101538.34;5079849;27;45310;-62
2021/05/27 06:23:30;;;;;;;;;17.75;15.75;;;;;12.75;64.90;101532.16;5080766;27;45294;-60
2021/05/27 06:25:55;;;;;;;;;16.50;14.50;;;;;12.78;64.78;101535.63;5065427;28;45402;-61
2021/05/27 06:28:21;;;;;;;;;16.50;16.50;;;;;12.83;64.50;101540.88;5077287;28;45282;-61
2021/05/27 06:30:46;;;;;;;;;17.75;15.75;;;;;12.87;64.10;101531.13;5079236;28;45645;-61
2021/05/27 06:33:12;;;;;;;;;20.00;18.00;;;;;12.94;63.82;101539.00;5080396;27;45226;-62
2021/05/27 06:35:37;;;;;;;;;15.50;15.50;;;;;12.99;63.80;101537.16;5095803;27;46911;-61
2021/05/27 06:38:03;;;;;;;;;17.00;15.25;;;;;13.05;63.71;101540.63;5080451;27;45266;-52
2021/05/27 06:40:29;;;;;;;;;19.75;16.75;;;;;13.09;63.44;101543.19;5080462;27;45223;-62
2021/05/27 06:42:55;;;;;;;;;17.50;14.00;;;;;13.17;62.83;101541.34;5079997;27;45454;-63
2021/05/27 06:45:22;;;;;;;;;19.25;15.00;;;;;13.20;62.38;101543.06;5080248;27;45501;-62
2021/05/27 06:47:49;;;;;;;;;13.50;13.50;;;;;13.21;62.38;101538.69;5080159;27;45492;-63
2021/05/27 06:50:16;;;;;;;;;19.50;16.00;;;;;13.25;62.24;101543.88;5080168;27;45346;-63
2021/05/27 06:52:44;;;;;;;;;20.50;14.50;;;;;13.31;61.95;101540.31;5095789;27;45428;-63
2021/05/27 06:55:10;;;;;;;;;18.25;17.50;;;;;13.36;62.09;101542.88;5079736;27;46370;-64
2021/05/27 06:57:35;;;;;;;;;20.75;14.25;;;;;13.42;61.29;101540.19;5095572;27;45266;-62
2021/05/27 07:00:02;;;;;;;;;13.25;11.75;;;;;13.48;61.34;101543.63;5078708;28;45239;-64
2021/05/27 07:02:29;;;;;;;;;15.25;13.00;;;;;13.57;61.35;101544.38;5078766;28;45304;-63
2021/05/27 07:04:54;;;;;;;;;17.00;12.00;;;;;13.59;60.42;101537.31;5079675;27;45445;-63
2021/05/27 07:07:20;;;;;;;;;13.25;12.25;;;;;13.63;60.63;101529.34;5079949;27;45267;-63
2021/05/27 07:09:45;;;;;;;;;16.00;12.75;;;;;13.73;60.35;101545.06;5080228;27;45393;-63
2021/05/27 07:12:11;;;;;;;;;11.75;11.50;;;;;13.78;60.17;101543.22;5079860;27;45246;-63
2021/05/27 07:14:36;;;;;;;;;15.00;13.00;;;;;13.79;59.63;101544.97;5079789;27;46292;-63
2021/05/27 07:17:04;;;;;;;;;12.00;11.75;;;;;13.86;59.49;101557.19;5080134;27;45313;-62
2021/05/27 07:19:30;;;;;;;;;14.25;12.50;;;;;13.91;59.45;101555.34;5079694;27;45389;-63
2021/05/27 07:21:55;;;;;;;;;16.00;14.00;;;;;13.97;59.48;101552.63;5079667;27;45267;-62
2021/05/27 07:24:21;;;;;;;;;13.00;13.00;;;;;14.05;59.53;101559.53;5079757;27;45581;-62
2021/05/27 07:26:46;;;;;;;;;9.75;8.50;;;;;14.08;58.14;101559.50;5079557;27;45362;-62
2021/05/27 07:29:11;;;;;;;;;11.00;9.75;;;;;14.07;57.65;101552.47;5079723;27;45574;-63
2021/05/27 07:31:37;;;;;;;;;7.00;6.50;;;;;14.08;57.52;101547.16;5081886;28;45305;-62
2021/05/27 07:34:05;;;;;;;;;9.25;9.00;;;;;14.18;57.29;101554.94;5082974;27;46018;-62
2021/05/27 07:36:30;;;;;;;;;9.50;8.25;;;;;14.23;56.98;101558.38;5082970;27;45322;-61
2021/05/27 07:38:55;;;;;;;;;8.25;8.25;;;;;14.26;56.38;101551.28;5081878;28;45320;-62
2021/05/27 07:41:21;;;;;;;;;9.00;8.00;;;;;14.34;56.15;101550.25;5099141;27;45734;-62
2021/05/27 07:43:47;;;;;;;;;8.25;7.50;;;;;14.40;55.53;101566.00;5082598;27;45390;-62
2021/05/27 07:46:12;;;;;;;;;8.75;7.50;;;;;14.41;55.52;101555.41;5083063;27;45223;-63
2021/05/27 07:48:38;;;;;;;;;10.00;10.00;;;;;14.54;55.77;101564.03;5098821;27;45277;-62
2021/05/27 07:51:05;;;;;;;;;9.25;8.00;;;;;14.60;55.23;101558.63;5082822;27;45349;-62
2021/05/27 07:53:30;;;;;;;;;7.75;4.50;;;;;14.67;54.70;101566.47;5082529;27;47107;-62
2021/05/27 07:55:55;;;;;;;;;10.00;8.50;;;;;14.69;54.16;101562.03;5082882;27;45246;-62
2021/05/27 07:58:21;;;;;;;;;12.00;10.00;;;;;14.77;54.19;101568.06;5086773;27;45365;-62
2021/05/27 08:00:46;;;;;;;;;9.00;9.00;;;;;14.85;54.08;101560.81;5082951;27;45405;-62
2021/05/27 08:03:12;;;;;;;;;11.00;9.25;;;;;14.93;54.69;101560.69;5082707;27;45468;-62
2021/05/27 08:05:37;;;;;;;;;7.00;7.00;;;;;15.05;53.97;101568.38;5098338;27;45371;-62
2021/05/27 08:08:03;;;;;;;;;9.25;8.25;;;;;15.15;53.84;101563.78;5082724;27;45288;-62
2021/05/27 08:10:28;;;;;;;;;8.25;7.50;;;;;15.25;52.95;101578.56;5082714;28;45493;-61
2021/05/27 08:12:54;;;;;;;;;6.25;6.25;;;;;15.31;52.74;101569.66;5082276;27;46141;-63
2021/05/27 08:15:19;;;;;;;;;7.00;5.00;;;;;15.27;52.61;101555.59;5082665;27;45329;-62
2021/05/27 08:17:45;;;;;;;;;9.00;8.00;;;;;15.47;52.29;101575.50;5082640;27;45828;-62
2021/05/27 08:20:11;;;;;;;;;8.75;8.00;;;;;15.59;52.39;101571.69;5082208;27;45529;-62
2021/05/27 08:22:37;;;;;;;;;7.75;7.50;;;;;15.67;52.25;101576.81;5080977;27;47812;-63
2021/05/27 08:25:04;;;;;;;;;8.25;8.00;;;;;15.71;52.02;101570.53;5082316;27;45173;-63
2021/05/27 08:27:30;;;;;;;;;9.00;7.50;;;;;15.72;52.12;101570.53;5082210;27;45333;-62
2021/05/27 08:29:56;;;;;;;;;10.00;8.50;;;;;15.83;52.46;101572.09;5081067;28;45260;-62
2021/05/27 08:32:21;;;;;;;;;10.25;9.75;;;;;15.91;51.78;101578.06;5081983;27;45496;-62
2021/05/27 08:34:47;;;;;;;;;9.00;8.75;;;;;16.00;51.87;101569.03;5080986;28;45291;-63
2021/05/27 08:37:12;;;;;;;;;7.25;7.25;;;;;16.05;50.88;101559.19;5082244;27;45295;-62
2021/05/27 08:39:37;;;;;;;;;8.75;8.75;;;;;16.11;50.57;101571.44;5081122;28;45351;-61
2021/05/27 08:42:03;;;;;;;;;7.25;7.25;;;;;16.15;49.98;101573.09;5081178;27;45952;-62
2021/05/27 08:44:28;;;;;;;;;8.00;6.25;;;;;16.20;50.51;101572.09;5082074;27;45230;-62
2021/05/27 08:46:54;;;;;;;;;9.50;8.00;;;;;16.28;50.43;101571.91;5082221;27;45302;-62
2021/05/27 08:49:19;;;;;;;;;10.75;10.75;;;;;16.38;50.16;101576.06;5081882;27;45492;-62
2021/05/27 08:51:45;;;;;;;;;9.25;9.25;;;;;16.49;49.88;101575.78;5081730;28;46154;-63
2021/05/27 08:54:10;;;;;;;;;7.25;7.25;;;;;16.52;49.42;101573.03;5081881;27;45381;-62
2021/05/27 08:56:36;;;;;;;;;7.00;7.00;;;;;16.57;48.88;101575.59;5081801;27;45729;-62
2021/05/27 08:59:02;;;;;;;;;10.75;9.50;;;;;16.62;49.12;101572.81;5082120;28;45277;-62
2021/05/27 09:01:27;;;;;;;;;8.50;8.50;;;;;16.70;48.89;101573.47;5081781;27;46235;-62
2021/05/27 09:03:56;;;;;;;;;8.75;8.75;;;;;16.82;49.01;101575.81;5081834;27;45234;-63
2021/05/27 09:06:23;;;;;;;;;7.00;7.00;;;;;16.95;48.39;101573.72;5081749;27;45508;-62
2021/05/27 09:08:49;;;;;;;;;12.00;9.25;;;;;17.09;47.87;101569.81;5081838;27;45304;-62
2021/05/27 09:11:17;;;;;;;;;10.00;9.50;;;;;17.21;48.26;101577.44;5081428;27;45318;-63
2021/05/27 09:13:55;;;;;;;;;10.75;9.75;;;;;17.43;48.64;101577.66;5081620;27;45225;-62
2021/05/27 09:16:20;;;;;;;;;8.00;6.75;;;;;17.64;47.73;101569.97;5081490;27;45342;-62
2021/05/27 09:18:46;;;;;;;;;8.50;8.25;;;;;17.95;47.65;101574.34;5081723;27;45393;-61
2021/05/27 09:21:13;;;;;;;;;10.25;9.25;;;;;18.19;46.88;101567.38;5080829;27;45915;-62
2021/05/27 09:23:50;;;;;;;;;10.50;8.00;;;;;18.39;46.29;101572.03;5081481;27;45349;-62
2021/05/27 09:26:17;;;;;;;;;11.75;6.75;;;;;18.50;45.23;101572.53;5097136;27;45332;-62
2021/05/27 09:28:45;;;;;;;;;4.00;3.00;;;;;18.55;45.04;101567.03;5081227;27;45264;-62
2021/05/27 09:31:14;;;;;;;;;7.00;6.00;;;;;18.62;45.33;101568.56;5081098;28;46362;-62
2021/05/27 09:33:42;;;;;;;;;10.75;7.25;;;;;18.81;44.32;101582.09;5096984;27;46145;-63
2021/05/27 09:36:07;;;;;;;;;7.75;7.75;;;;;18.91;43.76;101577.34;5096721;27;45257;-62
2021/05/27 09:38:39;;;;;;;;;9.50;7.25;;;;;18.83;43.65;101585.59;5081311;27;45361;-64
2021/05/27 09:41:24;;;;;;;;;8.25;7.50;;;;;18.85;43.96;101590.84;5081097;27;46180;-62
2021/05/27 09:43:54;;;;;;;;;7.50;7.00;;;;;18.92;42.92;101575.59;5080890;27;45302;-63
2021/05/27 09:46:22;;;;;;;;;6.50;5.50;;;;;19.01;42.58;101583.22;5081130;27;45236;-62
2021/05/27 09:49:03;;;;;;;;;6.75;6.75;;;;;18.93;42.35;101585.28;5080824;27;45334;-62
2021/05/27 09:51:29;;;;;;;;;10.00;6.00;;;;;18.91;41.74;101588.00;5080738;27;46995;-64
2021/05/27 09:53:55;;;;;;;;;8.00;8.00;;;;;18.89;41.79;101589.81;5096216;27;45239;-61
2021/05/27 09:56:41;;;;;;;;;7.50;7.00;;;;;18.90;41.11;101590.69;5081306;27;45503;-62
2021/05/27 09:59:09;;;;;;;;;6.50;6.50;;;;;18.89;41.62;101589.81;5080969;27;45349;-62
2021/05/27 10:01:34;;;;;;;;;8.25;6.75;;;;;18.89;41.88;101586.28;5080456;27;46105;-63
2021/05/27 10:04:10;;;;;;;;;7.25;7.25;;;;;18.94;41.52;101587.03;5080737;27;45540;-62
2021/05/27 10:06:35;;;;;;;;;8.00;6.50;;;;;19.03;41.67;101589.38;5080545;27;45322;-61
2021/05/27 10:09:01;;;;;;;;;6.75;6.00;;;;;19.15;41.82;101582.72;5080871;27;45244;-62
2021/05/27 10:11:26;;;;;;;;;6.25;6.25;;;;;19.32;42.39;101582.09;5096228;27;46104;-61
2021/05/27 10:13:53;;;;;;;;;6.50;6.50;;;;;19.46;42.66;101585.09;5080613;27;45185;-62
2021/05/27 10:16:20;;;;;;;;;7.25;7.00;;;;;19.55;40.39;101585.69;5080801;27;45307;-62
2021/05/27 10:18:48;;;;;;;;;5.00;5.00;;;;;19.62;40.15;101584.50;5062366;28;45476;-61
2021/05/27 10:21:13;;;;;;;;;7.50;7.00;;;;;19.68;40.85;101583.41;5080035;27;45548;-61
2021/05/27 10:23:41;;;;;;;;;8.50;7.75;;;;;19.88;41.42;101582.66;5080433;27;45228;-62
2021/05/27 10:26:07;;;;;;;;;6.00;6.00;;;;;20.17;40.66;101585.94;5080584;27;45328;-63
2021/05/27 10:28:33;;;;;;;;;8.00;7.00;;;;;20.52;40.40;101592.47;5080215;28;45247;-62
2021/05/27 10:31:00;;;;;;;;;8.50;8.50;;;;;20.94;39.92;101593.34;5080131;27;45288;-62
2021/05/27 10:33:26;;;;;;;;;8.00;7.50;;;;;21.90;40.06;101584.50;5080253;27;45366;-61
2021/05/27 10:35:55;;;;;;;;;8.50;7.50;;;;;25.29;38.82;101583.72;5080160;27;45594;-63
2021/05/27 10:38:39;;;;;;;;;6.75;6.00;;;;;29.92;31.59;101591.69;5080420;27;45531;-61
2021/05/27 10:41:18;;;;;;;;;8.00;7.00;;;;;33.31;29.42;101593.06;5078890;28;47380;-61
2021/05/27 10:43:59;;;;;;;;;7.00;7.00;;;;;36.71;27.46;101589.38;5080015;27;45441;-61
2021/05/27 10:46:29;;;;;;;;;7.75;6.25;;;;;39.53;24.45;101594.47;5080287;28;45460;-61
2021/05/27 10:48:54;;;;;;;;;8.00;7.00;;;;;41.65;21.43;101606.44;5080199;28;45380;-62
2021/05/27 10:51:29;;;;;;;;;6.75;6.75;;;;;43.55;20.00;101606.94;5079835;27;46200;-62
2021/05/27 10:54:16;;;;;;;;;6.75;6.75;;;;;46.58;17.38;101605.06;5079837;27;45226;-61
2021/05/27 10:56:47;;;;;;;;;8.00;7.00;;;;;48.87;13.78;101600.59;5078582;28;45317;-60
2021/05/27 10:59:16;;;;;;;;;6.25;5.00;;;;;50.74;13.06;101607.66;5080133;27;45538;-60
2021/05/27 11:01:42;;;;;;;;;6.25;5.25;;;;;52.99;12.70;101598.72;5079684;28;46898;-60
2021/05/27 11:04:08;;;;;;;;;4.50;4.50;;;;;55.05;10.02;101612.81;5079981;27;45370;-60
2021/05/27 11:06:35;;;;;;;;;5.25;4.50;;;;;55.98;8.36;101608.56;5081965;27;45421;-60
2021/05/27 11:09:07;;;;;;;;;8.50;8.50;;;;;56.28;7.78;101609.97;5083835;28;45309;-60
2021/05/27 11:11:40;;;;;;;;;7.50;6.25;;;;;56.98;7.90;101607.94;5083281;28;46310;-59
2021/05/27 11:14:27;;;;;;;;;5.00;5.00;;;;;57.36;5.57;101600.34;5083346;27;45184;-59
2021/05/27 11:17:02;;;;;;;;;5.00;5.00;;;;;55.47;6.17;101588.59;5082378;28;45270;-60
2021/05/27 11:19:54;;;;;;;;;5.00;5.00;;;;;50.03;7.80;101584.56;5081627;28;45386;-62
2021/05/27 11:22:35;;;;;;;;;6.25;6.25;;;;;46.80;9.42;101562.78;5083127;27;46462;-60
2021/05/27 11:25:07;;;;;;;;;7.50;7.50;;;;;48.77;9.64;101576.22;5083650;27;45302;-61
2021/05/27 11:27:36;;;;;;;;;8.00;7.00;;;;;45.44;9.45;101566.09;5081868;28;45401;-61